sensor_id;sensor_type;location;lat;lon;timestamp;P1;durP1;ratioP1;P2;durP2;ratioP2
62709;SDS011;48770;51.624;5.886;2023-01-19T00:00:57;1.13;;;0.90;;
62709;SDS011;48770;51.624;5.886;2023-01-19T00:03:22;1.10;;;0.93;;
62709;SDS011;48770;51.624;5.886;2023-01-19T00:05:48;0.82;;;0.60;;
62709;SDS011;48770;51.624;5.886;2023-01-19T00:08:13;0.90;;;0.75;;
62709;SDS011;48770;51.624;5.886;2023-01-19T00:10:39;1.50;;;0.90;;
62709;SDS011;48770;51.624;5.886;2023-01-19T00:13:06;1.95;;;1.20;;
62709;SDS011;48770;51.624;5.886;2023-01-19T00:15:31;2.53;;;1.05;;
62709;SDS011;48770;51.624;5.886;2023-01-19T00:17:56;1.00;;;0.90;;
62709;SDS011;48770;51.624;5.886;2023-01-19T00:20:22;1.30;;;0.88;;
62709;SDS011;48770;51.624;5.886;2023-01-19T00:22:47;1.38;;;0.90;;
62709;SDS011;48770;51.624;5.886;2023-01-19T00:25:15;1.75;;;0.80;;
62709;SDS011;48770;51.624;5.886;2023-01-19T00:27:41;1.33;;;0.90;;
62709;SDS011;48770;51.624;5.886;2023-01-19T00:30:06;2.03;;;0.80;;
62709;SDS011;48770;51.624;5.886;2023-01-19T00:32:32;1.15;;;0.80;;
62709;SDS011;48770;51.624;5.886;2023-01-19T00:34:57;1.25;;;1.00;;
62709;SDS011;48770;51.624;5.886;2023-01-19T00:37:22;1.80;;;0.80;;
62709;SDS011;48770;51.624;5.886;2023-01-19T00:39:48;1.15;;;0.80;;
62709;SDS011;48770;51.624;5.886;2023-01-19T00:42:13;1.08;;;0.70;;
62709;SDS011;48770;51.624;5.886;2023-01-19T00:47:22;1.02;;;0.90;;
62709;SDS011;48770;51.624;5.886;2023-01-19T00:49:48;0.95;;;0.73;;
62709;SDS011;48770;51.624;5.886;2023-01-19T00:52:13;0.80;;;0.80;;
62709;SDS011;48770;51.624;5.886;2023-01-19T00:54:38;1.13;;;0.90;;
62709;SDS011;48770;51.624;5.886;2023-01-19T00:57:04;1.13;;;0.70;;
62709;SDS011;48770;51.624;5.886;2023-01-19T00:59:29;1.80;;;1.00;;
62709;SDS011;48770;51.624;5.886;2023-01-19T01:01:54;1.40;;;0.82;;
62709;SDS011;48770;51.624;5.886;2023-01-19T01:04:19;1.08;;;0.80;;
62709;SDS011;48770;51.624;5.886;2023-01-19T01:06:45;1.13;;;0.80;;
62709;SDS011;48770;51.624;5.886;2023-01-19T01:09:10;0.85;;;0.80;;
62709;SDS011;48770;51.624;5.886;2023-01-19T01:11:39;1.35;;;0.90;;
62709;SDS011;48770;51.624;5.886;2023-01-19T01:14:06;0.93;;;0.70;;
62709;SDS011;48770;51.624;5.886;2023-01-19T01:16:32;1.25;;;0.68;;
62709;SDS011;48770;51.624;5.886;2023-01-19T01:18:57;1.10;;;0.70;;
62709;SDS011;48770;51.624;5.886;2023-01-19T01:21:23;1.55;;;1.00;;
62709;SDS011;48770;51.624;5.886;2023-01-19T01:23:48;1.40;;;1.05;;
62709;SDS011;48770;51.624;5.886;2023-01-19T01:26:13;2.28;;;1.00;;
62709;SDS011;48770;51.624;5.886;2023-01-19T01:28:39;1.13;;;0.85;;
62709;SDS011;48770;51.624;5.886;2023-01-19T01:31:04;1.63;;;0.73;;
62709;SDS011;48770;51.624;5.886;2023-01-19T01:33:29;0.95;;;0.60;;
62709;SDS011;48770;51.624;5.886;2023-01-19T01:35:54;1.10;;;0.80;;
62709;SDS011;48770;51.624;5.886;2023-01-19T01:38:20;0.80;;;0.70;;
62709;SDS011;48770;51.624;5.886;2023-01-19T01:40:45;1.52;;;0.75;;
62709;SDS011;48770;51.624;5.886;2023-01-19T01:43:15;1.25;;;0.70;;
62709;SDS011;48770;51.624;5.886;2023-01-19T01:45:41;1.50;;;0.93;;
62709;SDS011;48770;51.624;5.886;2023-01-19T01:50:55;0.98;;;0.65;;
62709;SDS011;48770;51.624;5.886;2023-01-19T01:53:44;0.50;;;0.50;;
62709;SDS011;48770;51.624;5.886;2023-01-19T01:56:14;0.80;;;0.60;;
62709;SDS011;48770;51.624;5.886;2023-01-19T01:58:43;0.75;;;0.60;;
62709;SDS011;48770;51.624;5.886;2023-01-19T02:01:09;0.90;;;0.80;;
62709;SDS011;48770;51.624;5.886;2023-01-19T02:03:53;1.42;;;0.90;;
62709;SDS011;48770;51.624;5.886;2023-01-19T02:06:21;1.23;;;0.80;;
62709;SDS011;48770;51.624;5.886;2023-01-19T02:08:49;0.82;;;0.60;;
62709;SDS011;48770;51.624;5.886;2023-01-19T02:11:38;0.90;;;0.80;;
62709;SDS011;48770;51.624;5.886;2023-01-19T02:14:23;1.45;;;0.82;;
62709;SDS011;48770;51.624;5.886;2023-01-19T02:16:48;0.93;;;0.60;;
62709;SDS011;48770;51.624;5.886;2023-01-19T02:19:20;0.70;;;0.70;;
62709;SDS011;48770;51.624;5.886;2023-01-19T02:21:53;0.70;;;0.60;;
62709;SDS011;48770;51.624;5.886;2023-01-19T02:24:29;0.55;;;0.50;;
62709;SDS011;48770;51.624;5.886;2023-01-19T02:26:55;1.60;;;0.90;;
62709;SDS011;48770;51.624;5.886;2023-01-19T02:29:23;1.90;;;0.90;;
62709;SDS011;48770;51.624;5.886;2023-01-19T02:31:50;1.52;;;0.80;;
62709;SDS011;48770;51.624;5.886;2023-01-19T02:34:17;1.13;;;0.82;;
62709;SDS011;48770;51.624;5.886;2023-01-19T02:39:09;1.20;;;0.90;;
62709;SDS011;48770;51.624;5.886;2023-01-19T02:41:37;1.38;;;0.75;;
62709;SDS011;48770;51.624;5.886;2023-01-19T02:44:07;0.80;;;0.70;;
62709;SDS011;48770;51.624;5.886;2023-01-19T02:46:34;0.93;;;0.70;;
62709;SDS011;48770;51.624;5.886;2023-01-19T02:49:00;2.03;;;0.93;;
62709;SDS011;48770;51.624;5.886;2023-01-19T02:51:26;1.08;;;0.60;;
62709;SDS011;48770;51.624;5.886;2023-01-19T03:10:32;0.93;;;0.65;;
62709;SDS011;48770;51.624;5.886;2023-01-19T03:13:04;1.13;;;0.70;;
62709;SDS011;48770;51.624;5.886;2023-01-19T03:15:38;0.57;;;0.50;;
62709;SDS011;48770;51.624;5.886;2023-01-19T03:18:09;1.00;;;0.77;;
62709;SDS011;48770;51.624;5.886;2023-01-19T03:20:38;1.27;;;0.60;;
62709;SDS011;48770;51.624;5.886;2023-01-19T03:23:05;1.30;;;0.57;;
62709;SDS011;48770;51.624;5.886;2023-01-19T03:25:35;0.77;;;0.70;;
62709;SDS011;48770;51.624;5.886;2023-01-19T03:28:03;0.93;;;0.60;;
62709;SDS011;48770;51.624;5.886;2023-01-19T03:30:34;1.48;;;0.68;;
62709;SDS011;48770;51.624;5.886;2023-01-19T03:33:12;0.90;;;0.50;;
62709;SDS011;48770;51.624;5.886;2023-01-19T03:35:47;1.52;;;0.73;;
62709;SDS011;48770;51.624;5.886;2023-01-19T03:38:14;2.22;;;0.70;;
62709;SDS011;48770;51.624;5.886;2023-01-19T03:40:43;0.70;;;0.60;;
62709;SDS011;48770;51.624;5.886;2023-01-19T03:43:11;1.17;;;0.70;;
62709;SDS011;48770;51.624;5.886;2023-01-19T03:45:39;1.05;;;0.70;;
62709;SDS011;48770;51.624;5.886;2023-01-19T03:48:05;0.88;;;0.60;;
62709;SDS011;48770;51.624;5.886;2023-01-19T03:50:31;0.70;;;0.50;;
62709;SDS011;48770;51.624;5.886;2023-01-19T03:53:09;1.10;;;0.77;;
62709;SDS011;48770;51.624;5.886;2023-01-19T03:55:38;0.82;;;0.50;;
62709;SDS011;48770;51.624;5.886;2023-01-19T03:58:06;0.50;;;0.50;;
62709;SDS011;48770;51.624;5.886;2023-01-19T04:00:31;0.90;;;0.70;;
62709;SDS011;48770;51.624;5.886;2023-01-19T04:02:57;0.82;;;0.65;;
62709;SDS011;48770;51.624;5.886;2023-01-19T04:05:23;1.58;;;0.55;;
62709;SDS011;48770;51.624;5.886;2023-01-19T04:07:48;0.80;;;0.70;;
62709;SDS011;48770;51.624;5.886;2023-01-19T04:10:16;1.02;;;0.60;;
62709;SDS011;48770;51.624;5.886;2023-01-19T04:12:44;0.75;;;0.65;;
62709;SDS011;48770;51.624;5.886;2023-01-19T04:15:10;0.68;;;0.47;;
62709;SDS011;48770;51.624;5.886;2023-01-19T04:17:35;1.25;;;0.50;;
62709;SDS011;48770;51.624;5.886;2023-01-19T04:20:01;0.68;;;0.60;;
62709;SDS011;48770;51.624;5.886;2023-01-19T04:22:26;0.77;;;0.50;;
62709;SDS011;48770;51.624;5.886;2023-01-19T04:24:51;0.77;;;0.50;;
62709;SDS011;48770;51.624;5.886;2023-01-19T04:27:17;0.55;;;0.50;;
62709;SDS011;48770;51.624;5.886;2023-01-19T04:29:42;0.50;;;0.40;;
62709;SDS011;48770;51.624;5.886;2023-01-19T04:32:08;1.20;;;0.45;;
62709;SDS011;48770;51.624;5.886;2023-01-19T04:34:33;1.10;;;0.68;;
62709;SDS011;48770;51.624;5.886;2023-01-19T04:36:58;0.60;;;0.40;;
62709;SDS011;48770;51.624;5.886;2023-01-19T04:39:24;0.50;;;0.47;;
62709;SDS011;48770;51.624;5.886;2023-01-19T04:41:49;0.68;;;0.50;;
62709;SDS011;48770;51.624;5.886;2023-01-19T04:44:15;0.47;;;0.38;;
62709;SDS011;48770;51.624;5.886;2023-01-19T04:46:41;0.50;;;0.40;;
62709;SDS011;48770;51.624;5.886;2023-01-19T04:49:07;0.50;;;0.38;;
62709;SDS011;48770;51.624;5.886;2023-01-19T04:51:32;0.50;;;0.50;;
62709;SDS011;48770;51.624;5.886;2023-01-19T04:53:58;0.50;;;0.50;;
62709;SDS011;48770;51.624;5.886;2023-01-19T04:56:23;0.55;;;0.40;;
62709;SDS011;48770;51.624;5.886;2023-01-19T04:58:49;0.50;;;0.32;;
62709;SDS011;48770;51.624;5.886;2023-01-19T05:01:14;0.47;;;0.43;;
62709;SDS011;48770;51.624;5.886;2023-01-19T05:03:39;0.60;;;0.40;;
62709;SDS011;48770;51.624;5.886;2023-01-19T05:06:05;0.88;;;0.45;;
62709;SDS011;48770;51.624;5.886;2023-01-19T05:08:30;0.57;;;0.43;;
62709;SDS011;48770;51.624;5.886;2023-01-19T05:10:56;0.40;;;0.40;;
62709;SDS011;48770;51.624;5.886;2023-01-19T05:13:21;0.50;;;0.40;;
62709;SDS011;48770;51.624;5.886;2023-01-19T05:15:47;0.65;;;0.43;;
62709;SDS011;48770;51.624;5.886;2023-01-19T05:18:12;0.30;;;0.30;;
62709;SDS011;48770;51.624;5.886;2023-01-19T05:20:38;0.60;;;0.50;;
62709;SDS011;48770;51.624;5.886;2023-01-19T05:23:04;0.40;;;0.40;;
62709;SDS011;48770;51.624;5.886;2023-01-19T05:25:29;0.40;;;0.30;;
62709;SDS011;48770;51.624;5.886;2023-01-19T05:27:54;0.75;;;0.40;;
62709;SDS011;48770;51.624;5.886;2023-01-19T05:30:20;0.30;;;0.20;;
62709;SDS011;48770;51.624;5.886;2023-01-19T05:32:45;0.77;;;0.40;;
62709;SDS011;48770;51.624;5.886;2023-01-19T05:35:10;0.30;;;0.30;;
62709;SDS011;48770;51.624;5.886;2023-01-19T05:37:37;0.50;;;0.30;;
62709;SDS011;48770;51.624;5.886;2023-01-19T05:40:03;0.30;;;0.30;;
62709;SDS011;48770;51.624;5.886;2023-01-19T05:42:29;0.30;;;0.20;;
62709;SDS011;48770;51.624;5.886;2023-01-19T05:44:54;0.60;;;0.20;;
62709;SDS011;48770;51.624;5.886;2023-01-19T05:47:20;0.20;;;0.20;;
62709;SDS011;48770;51.624;5.886;2023-01-19T05:49:45;0.30;;;0.30;;
62709;SDS011;48770;51.624;5.886;2023-01-19T05:52:10;0.30;;;0.20;;
62709;SDS011;48770;51.624;5.886;2023-01-19T05:54:35;0.30;;;0.20;;
62709;SDS011;48770;51.624;5.886;2023-01-19T05:57:04;0.52;;;0.30;;
62709;SDS011;48770;51.624;5.886;2023-01-19T05:59:30;0.20;;;0.20;;
62709;SDS011;48770;51.624;5.886;2023-01-19T06:01:55;0.40;;;0.30;;
62709;SDS011;48770;51.624;5.886;2023-01-19T06:04:21;0.30;;;0.30;;
62709;SDS011;48770;51.624;5.886;2023-01-19T06:06:47;0.60;;;0.40;;
62709;SDS011;48770;51.624;5.886;2023-01-19T06:09:13;0.20;;;0.20;;
62709;SDS011;48770;51.624;5.886;2023-01-19T06:11:38;0.30;;;0.22;;
62709;SDS011;48770;51.624;5.886;2023-01-19T06:14:03;0.52;;;0.32;;
62709;SDS011;48770;51.624;5.886;2023-01-19T06:16:29;0.30;;;0.22;;
62709;SDS011;48770;51.624;5.886;2023-01-19T06:18:54;0.50;;;0.20;;
62709;SDS011;48770;51.624;5.886;2023-01-19T06:21:19;0.30;;;0.25;;
62709;SDS011;48770;51.624;5.886;2023-01-19T06:23:45;0.75;;;0.45;;
62709;SDS011;48770;51.624;5.886;2023-01-19T06:26:11;0.25;;;0.13;;
62709;SDS011;48770;51.624;5.886;2023-01-19T06:28:36;0.43;;;0.25;;
62709;SDS011;48770;51.624;5.886;2023-01-19T06:31:01;0.40;;;0.30;;
62709;SDS011;48770;51.624;5.886;2023-01-19T06:33:27;0.40;;;0.17;;
62709;SDS011;48770;51.624;5.886;2023-01-19T06:35:53;0.20;;;0.20;;
62709;SDS011;48770;51.624;5.886;2023-01-19T06:38:19;0.57;;;0.20;;
62709;SDS011;48770;51.624;5.886;2023-01-19T06:40:44;0.25;;;0.20;;
62709;SDS011;48770;51.624;5.886;2023-01-19T06:43:15;0.20;;;0.20;;
62709;SDS011;48770;51.624;5.886;2023-01-19T06:45:40;0.38;;;0.17;;
62709;SDS011;48770;51.624;5.886;2023-01-19T06:48:07;0.30;;;0.20;;
62709;SDS011;48770;51.624;5.886;2023-01-19T06:50:32;0.50;;;0.20;;
62709;SDS011;48770;51.624;5.886;2023-01-19T06:52:58;0.30;;;0.20;;
62709;SDS011;48770;51.624;5.886;2023-01-19T06:55:24;0.22;;;0.10;;
62709;SDS011;48770;51.624;5.886;2023-01-19T06:57:58;0.22;;;0.20;;
62709;SDS011;48770;51.624;5.886;2023-01-19T07:00:24;0.20;;;0.08;;
62709;SDS011;48770;51.624;5.886;2023-01-19T07:02:50;0.20;;;0.13;;
62709;SDS011;48770;51.624;5.886;2023-01-19T07:05:15;0.40;;;0.20;;
62709;SDS011;48770;51.624;5.886;2023-01-19T07:07:40;0.20;;;0.20;;
62709;SDS011;48770;51.624;5.886;2023-01-19T07:10:07;0.20;;;0.20;;
62709;SDS011;48770;51.624;5.886;2023-01-19T07:12:36;0.50;;;0.25;;
62709;SDS011;48770;51.624;5.886;2023-01-19T07:15:03;0.20;;;0.20;;
62709;SDS011;48770;51.624;5.886;2023-01-19T07:17:29;0.13;;;0.10;;
62709;SDS011;48770;51.624;5.886;2023-01-19T07:19:54;0.30;;;0.30;;
62709;SDS011;48770;51.624;5.886;2023-01-19T07:22:20;0.20;;;0.20;;
62709;SDS011;48770;51.624;5.886;2023-01-19T07:24:45;0.25;;;0.17;;
62709;SDS011;48770;51.624;5.886;2023-01-19T07:27:11;0.20;;;0.20;;
62709;SDS011;48770;51.624;5.886;2023-01-19T07:29:36;0.50;;;0.10;;
62709;SDS011;48770;51.624;5.886;2023-01-19T07:32:02;0.30;;;0.20;;
62709;SDS011;48770;51.624;5.886;2023-01-19T07:34:27;0.30;;;0.20;;
62709;SDS011;48770;51.624;5.886;2023-01-19T07:36:54;0.20;;;0.17;;
62709;SDS011;48770;51.624;5.886;2023-01-19T07:39:19;0.77;;;0.43;;
62709;SDS011;48770;51.624;5.886;2023-01-19T07:41:46;0.68;;;0.20;;
62709;SDS011;48770;51.624;5.886;2023-01-19T07:44:12;0.20;;;0.20;;
62709;SDS011;48770;51.624;5.886;2023-01-19T07:46:37;0.65;;;0.20;;
62709;SDS011;48770;51.624;5.886;2023-01-19T07:49:03;0.22;;;0.20;;
62709;SDS011;48770;51.624;5.886;2023-01-19T07:51:28;0.60;;;0.30;;
62709;SDS011;48770;51.624;5.886;2023-01-19T07:53:53;0.30;;;0.30;;
62709;SDS011;48770;51.624;5.886;2023-01-19T07:56:18;0.70;;;0.30;;
62709;SDS011;48770;51.624;5.886;2023-01-19T07:58:44;0.35;;;0.30;;
62709;SDS011;48770;51.624;5.886;2023-01-19T08:01:11;0.35;;;0.30;;
62709;SDS011;48770;51.624;5.886;2023-01-19T08:03:37;0.50;;;0.30;;
62709;SDS011;48770;51.624;5.886;2023-01-19T08:06:03;0.30;;;0.20;;
62709;SDS011;48770;51.624;5.886;2023-01-19T08:08:30;0.70;;;0.30;;
62709;SDS011;48770;51.624;5.886;2023-01-19T08:10:56;0.52;;;0.32;;
62709;SDS011;48770;51.624;5.886;2023-01-19T08:13:22;0.30;;;0.28;;
62709;SDS011;48770;51.624;5.886;2023-01-19T08:15:48;0.40;;;0.30;;
62709;SDS011;48770;51.624;5.886;2023-01-19T08:18:17;0.52;;;0.30;;
62709;SDS011;48770;51.624;5.886;2023-01-19T08:20:43;0.63;;;0.30;;
62709;SDS011;48770;51.624;5.886;2023-01-19T08:23:09;0.63;;;0.47;;
62709;SDS011;48770;51.624;5.886;2023-01-19T08:25:36;0.80;;;0.40;;
62709;SDS011;48770;51.624;5.886;2023-01-19T08:28:04;0.43;;;0.40;;
62709;SDS011;48770;51.624;5.886;2023-01-19T08:30:31;0.90;;;0.38;;
62709;SDS011;48770;51.624;5.886;2023-01-19T08:32:56;0.65;;;0.40;;
62709;SDS011;48770;51.624;5.886;2023-01-19T08:35:30;0.75;;;0.55;;
62709;SDS011;48770;51.624;5.886;2023-01-19T08:37:57;1.17;;;0.40;;
62709;SDS011;48770;51.624;5.886;2023-01-19T08:40:32;0.70;;;0.50;;
62709;SDS011;48770;51.624;5.886;2023-01-19T08:43:17;1.92;;;0.60;;
62709;SDS011;48770;51.624;5.886;2023-01-19T08:45:43;0.75;;;0.40;;
62709;SDS011;48770;51.624;5.886;2023-01-19T08:48:13;0.88;;;0.63;;
62709;SDS011;48770;51.624;5.886;2023-01-19T08:50:40;1.17;;;0.55;;
62709;SDS011;48770;51.624;5.886;2023-01-19T08:53:05;0.90;;;0.50;;
62709;SDS011;48770;51.624;5.886;2023-01-19T08:55:31;1.05;;;0.60;;
62709;SDS011;48770;51.624;5.886;2023-01-19T08:57:58;1.10;;;0.50;;
62709;SDS011;48770;51.624;5.886;2023-01-19T09:00:28;1.90;;;0.70;;
62709;SDS011;48770;51.624;5.886;2023-01-19T09:02:55;1.05;;;0.70;;
62709;SDS011;48770;51.624;5.886;2023-01-19T09:05:21;0.65;;;0.57;;
62709;SDS011;48770;51.624;5.886;2023-01-19T09:07:47;1.45;;;0.80;;
62709;SDS011;48770;51.624;5.886;2023-01-19T09:10:13;0.90;;;0.60;;
62709;SDS011;48770;51.624;5.886;2023-01-19T09:12:39;1.13;;;0.80;;
62709;SDS011;48770;51.624;5.886;2023-01-19T09:15:05;0.88;;;0.60;;
62709;SDS011;48770;51.624;5.886;2023-01-19T09:17:31;1.05;;;0.70;;
62709;SDS011;48770;51.624;5.886;2023-01-19T09:19:56;1.75;;;1.05;;
62709;SDS011;48770;51.624;5.886;2023-01-19T09:22:22;0.98;;;0.60;;
62709;SDS011;48770;51.624;5.886;2023-01-19T09:24:48;1.10;;;0.85;;
62709;SDS011;48770;51.624;5.886;2023-01-19T09:27:13;1.45;;;0.95;;
62709;SDS011;48770;51.624;5.886;2023-01-19T09:29:38;1.00;;;0.77;;
62709;SDS011;48770;51.624;5.886;2023-01-19T09:32:04;0.80;;;0.68;;
62709;SDS011;48770;51.624;5.886;2023-01-19T09:34:29;1.20;;;1.10;;
62709;SDS011;48770;51.624;5.886;2023-01-19T09:36:55;1.35;;;0.88;;
62709;SDS011;48770;51.624;5.886;2023-01-19T09:39:21;1.38;;;0.80;;
62709;SDS011;48770;51.624;5.886;2023-01-19T09:41:50;3.08;;;0.90;;
62709;SDS011;48770;51.624;5.886;2023-01-19T09:44:28;1.15;;;0.80;;
62709;SDS011;48770;51.624;5.886;2023-01-19T09:46:57;1.35;;;1.08;;
62709;SDS011;48770;51.624;5.886;2023-01-19T09:49:27;1.05;;;0.82;;
62709;SDS011;48770;51.624;5.886;2023-01-19T09:51:58;1.88;;;1.00;;
62709;SDS011;48770;51.624;5.886;2023-01-19T09:57:08;1.83;;;1.02;;
62709;SDS011;48770;51.624;5.886;2023-01-19T09:59:35;1.70;;;1.20;;
62709;SDS011;48770;51.624;5.886;2023-01-19T10:07:56;2.13;;;0.98;;
62709;SDS011;48770;51.624;5.886;2023-01-19T10:10:34;2.90;;;1.10;;
62709;SDS011;48770;51.624;5.886;2023-01-19T10:18:43;1.25;;;1.00;;
62709;SDS011;48770;51.624;5.886;2023-01-19T10:21:22;1.45;;;1.00;;
62709;SDS011;48770;51.624;5.886;2023-01-19T10:24:05;2.30;;;1.20;;
62709;SDS011;48770;51.624;5.886;2023-01-19T10:26:43;1.67;;;1.38;;
62709;SDS011;48770;51.624;5.886;2023-01-19T10:31:47;1.80;;;1.30;;
62709;SDS011;48770;51.624;5.886;2023-01-19T10:34:16;2.20;;;1.10;;
62709;SDS011;48770;51.624;5.886;2023-01-19T10:36:45;2.22;;;1.05;;
62709;SDS011;48770;51.624;5.886;2023-01-19T10:39:14;1.80;;;1.17;;
62709;SDS011;48770;51.624;5.886;2023-01-19T10:41:51;1.38;;;1.10;;
62709;SDS011;48770;51.624;5.886;2023-01-19T10:44:24;1.98;;;1.30;;
62709;SDS011;48770;51.624;5.886;2023-01-19T10:46:51;2.28;;;1.48;;
62709;SDS011;48770;51.624;5.886;2023-01-19T10:49:40;2.53;;;1.48;;
62709;SDS011;48770;51.624;5.886;2023-01-19T10:54:57;1.55;;;1.08;;
62709;SDS011;48770;51.624;5.886;2023-01-19T10:57:25;1.88;;;1.23;;
62709;SDS011;48770;51.624;5.886;2023-01-19T10:59:54;1.90;;;1.35;;
62709;SDS011;48770;51.624;5.886;2023-01-19T11:02:24;1.52;;;1.35;;
62709;SDS011;48770;51.624;5.886;2023-01-19T11:04:54;2.28;;;1.30;;
62709;SDS011;48770;51.624;5.886;2023-01-19T11:09:51;1.92;;;1.25;;
62709;SDS011;48770;51.624;5.886;2023-01-19T11:15:43;2.22;;;1.48;;
62709;SDS011;48770;51.624;5.886;2023-01-19T11:18:29;3.47;;;1.98;;
62709;SDS011;48770;51.624;5.886;2023-01-19T11:21:06;2.22;;;1.20;;
62709;SDS011;48770;51.624;5.886;2023-01-19T11:26:13;3.17;;;1.40;;
62709;SDS011;48770;51.624;5.886;2023-01-19T11:28:48;2.25;;;1.40;;
62709;SDS011;48770;51.624;5.886;2023-01-19T11:31:18;1.48;;;0.95;;
62709;SDS011;48770;51.624;5.886;2023-01-19T11:33:53;2.10;;;1.50;;
62709;SDS011;48770;51.624;5.886;2023-01-19T11:36:23;1.98;;;1.13;;
62709;SDS011;48770;51.624;5.886;2023-01-19T11:38:51;1.13;;;1.02;;
62709;SDS011;48770;51.624;5.886;2023-01-19T11:41:22;2.30;;;1.40;;
62709;SDS011;48770;51.624;5.886;2023-01-19T11:44:10;2.00;;;1.20;;
62709;SDS011;48770;51.624;5.886;2023-01-19T11:46:42;1.30;;;1.00;;
62709;SDS011;48770;51.624;5.886;2023-01-19T11:49:31;1.35;;;1.15;;
62709;SDS011;48770;51.624;5.886;2023-01-19T11:54:53;1.90;;;1.40;;
62709;SDS011;48770;51.624;5.886;2023-01-19T11:57:23;1.75;;;1.15;;
62709;SDS011;48770;51.624;5.886;2023-01-19T11:59:49;2.25;;;1.30;;
62709;SDS011;48770;51.624;5.886;2023-01-19T12:02:20;2.20;;;1.20;;
62709;SDS011;48770;51.624;5.886;2023-01-19T12:04:51;2.03;;;1.20;;
62709;SDS011;48770;51.624;5.886;2023-01-19T12:07:22;1.77;;;1.15;;
62709;SDS011;48770;51.624;5.886;2023-01-19T12:09:54;1.60;;;1.10;;
62709;SDS011;48770;51.624;5.886;2023-01-19T12:12:27;1.52;;;1.27;;
62709;SDS011;48770;51.624;5.886;2023-01-19T12:17:42;1.00;;;0.70;;
62709;SDS011;48770;51.624;5.886;2023-01-19T12:23:00;1.75;;;1.10;;
62709;SDS011;48770;51.624;5.886;2023-01-19T12:28:30;1.30;;;0.90;;
62709;SDS011;48770;51.624;5.886;2023-01-19T12:30:58;1.77;;;1.10;;
62709;SDS011;48770;51.624;5.886;2023-01-19T12:38:34;1.13;;;0.82;;
62709;SDS011;48770;51.624;5.886;2023-01-19T12:41:14;1.65;;;1.05;;
62709;SDS011;48770;51.624;5.886;2023-01-19T12:43:41;1.13;;;0.90;;
62709;SDS011;48770;51.624;5.886;2023-01-19T12:46:40;1.08;;;0.75;;
62709;SDS011;48770;51.624;5.886;2023-01-19T12:49:02;1.67;;;0.70;;
62709;SDS011;48770;51.624;5.886;2023-01-19T12:51:38;1.33;;;0.70;;
62709;SDS011;48770;51.624;5.886;2023-01-19T12:54:05;1.10;;;0.90;;
62709;SDS011;48770;51.624;5.886;2023-01-19T12:56:33;1.52;;;1.00;;
62709;SDS011;48770;51.624;5.886;2023-01-19T12:59:01;1.05;;;0.70;;
62709;SDS011;48770;51.624;5.886;2023-01-19T13:01:28;1.40;;;0.90;;
62709;SDS011;48770;51.624;5.886;2023-01-19T13:03:57;0.93;;;0.82;;
62709;SDS011;48770;51.624;5.886;2023-01-19T13:09:30;1.67;;;0.65;;
62709;SDS011;48770;51.624;5.886;2023-01-19T13:14:43;0.98;;;0.77;;
62709;SDS011;48770;51.624;5.886;2023-01-19T13:17:20;1.40;;;0.90;;
62709;SDS011;48770;51.624;5.886;2023-01-19T13:19:53;1.05;;;0.70;;
62709;SDS011;48770;51.624;5.886;2023-01-19T13:25:32;0.90;;;0.50;;
62709;SDS011;48770;51.624;5.886;2023-01-19T13:27:59;2.17;;;0.80;;
62709;SDS011;48770;51.624;5.886;2023-01-19T13:30:27;1.52;;;0.70;;
62709;SDS011;48770;51.624;5.886;2023-01-19T13:33:00;1.35;;;0.77;;
62709;SDS011;48770;51.624;5.886;2023-01-19T13:35:33;1.27;;;0.70;;
62709;SDS011;48770;51.624;5.886;2023-01-19T13:37:58;0.82;;;0.60;;
62709;SDS011;48770;51.624;5.886;2023-01-19T13:40:29;1.40;;;0.80;;
62709;SDS011;48770;51.624;5.886;2023-01-19T13:43:00;1.48;;;0.80;;
62709;SDS011;48770;51.624;5.886;2023-01-19T13:48:01;0.98;;;0.70;;
62709;SDS011;48770;51.624;5.886;2023-01-19T13:50:31;1.27;;;0.63;;
62709;SDS011;48770;51.624;5.886;2023-01-19T13:52:59;1.13;;;0.60;;
62709;SDS011;48770;51.624;5.886;2023-01-19T13:55:26;0.85;;;0.57;;
62709;SDS011;48770;51.624;5.886;2023-01-19T13:57:54;1.80;;;0.70;;
62709;SDS011;48770;51.624;5.886;2023-01-19T14:00:21;2.60;;;0.90;;
62709;SDS011;48770;51.624;5.886;2023-01-19T14:02:53;1.80;;;0.60;;
62709;SDS011;48770;51.624;5.886;2023-01-19T14:05:31;1.25;;;0.50;;
62709;SDS011;48770;51.624;5.886;2023-01-19T14:15:45;1.00;;;0.40;;
62709;SDS011;48770;51.624;5.886;2023-01-19T14:20:52;1.40;;;0.50;;
62709;SDS011;48770;51.624;5.886;2023-01-19T14:34:50;1.42;;;0.80;;
62709;SDS011;48770;51.624;5.886;2023-01-19T14:40:03;1.85;;;0.80;;
62709;SDS011;48770;51.624;5.886;2023-01-19T14:42:58;1.20;;;0.70;;
62709;SDS011;48770;51.624;5.886;2023-01-19T14:45:31;0.85;;;0.60;;
62709;SDS011;48770;51.624;5.886;2023-01-19T14:48:04;1.10;;;0.70;;
62709;SDS011;48770;51.624;5.886;2023-01-19T14:50:38;1.17;;;0.70;;
62709;SDS011;48770;51.624;5.886;2023-01-19T14:53:17;1.08;;;0.70;;
62709;SDS011;48770;51.624;5.886;2023-01-19T14:58:16;0.85;;;0.57;;
62709;SDS011;48770;51.624;5.886;2023-01-19T15:00:45;1.50;;;0.65;;
62709;SDS011;48770;51.624;5.886;2023-01-19T15:03:11;0.95;;;0.60;;
62709;SDS011;48770;51.624;5.886;2023-01-19T15:05:39;0.95;;;0.60;;
62709;SDS011;48770;51.624;5.886;2023-01-19T15:08:06;0.80;;;0.50;;
62709;SDS011;48770;51.624;5.886;2023-01-19T15:10:32;1.38;;;0.73;;
62709;SDS011;48770;51.624;5.886;2023-01-19T15:12:59;0.85;;;0.63;;
62709;SDS011;48770;51.624;5.886;2023-01-19T15:18:05;0.70;;;0.50;;
62709;SDS011;48770;51.624;5.886;2023-01-19T15:20:32;0.93;;;0.70;;
62709;SDS011;48770;51.624;5.886;2023-01-19T15:22:58;1.13;;;0.73;;
62709;SDS011;48770;51.624;5.886;2023-01-19T15:25:23;1.17;;;0.63;;
62709;SDS011;48770;51.624;5.886;2023-01-19T15:27:51;0.70;;;0.50;;
62709;SDS011;48770;51.624;5.886;2023-01-19T15:30:22;1.35;;;0.68;;
62709;SDS011;48770;51.624;5.886;2023-01-19T15:32:52;1.05;;;0.60;;
62709;SDS011;48770;51.624;5.886;2023-01-19T15:35:18;1.10;;;0.60;;
62709;SDS011;48770;51.624;5.886;2023-01-19T15:37:45;0.70;;;0.60;;
62709;SDS011;48770;51.624;5.886;2023-01-19T15:40:11;1.27;;;0.90;;
62709;SDS011;48770;51.624;5.886;2023-01-19T15:42:37;0.95;;;0.80;;
62709;SDS011;48770;51.624;5.886;2023-01-19T15:45:16;1.17;;;0.63;;
62709;SDS011;48770;51.624;5.886;2023-01-19T15:47:53;0.75;;;0.60;;
62709;SDS011;48770;51.624;5.886;2023-01-19T15:50:18;1.15;;;0.60;;
62709;SDS011;48770;51.624;5.886;2023-01-19T15:52:44;1.92;;;0.73;;
62709;SDS011;48770;51.624;5.886;2023-01-19T15:55:09;1.08;;;0.70;;
62709;SDS011;48770;51.624;5.886;2023-01-19T15:57:36;0.68;;;0.60;;
62709;SDS011;48770;51.624;5.886;2023-01-19T16:00:05;1.30;;;0.70;;
62709;SDS011;48770;51.624;5.886;2023-01-19T16:02:30;1.10;;;0.70;;
62709;SDS011;48770;51.624;5.886;2023-01-19T16:04:56;1.00;;;0.70;;
62709;SDS011;48770;51.624;5.886;2023-01-19T16:07:21;1.20;;;0.70;;
62709;SDS011;48770;51.624;5.886;2023-01-19T16:09:46;0.55;;;0.50;;
62709;SDS011;48770;51.624;5.886;2023-01-19T16:12:13;1.42;;;0.57;;
62709;SDS011;48770;51.624;5.886;2023-01-19T16:14:39;1.17;;;0.50;;
62709;SDS011;48770;51.624;5.886;2023-01-19T16:17:04;0.93;;;0.63;;
62709;SDS011;48770;51.624;5.886;2023-01-19T16:19:30;0.90;;;0.70;;
62709;SDS011;48770;51.624;5.886;2023-01-19T16:21:55;0.90;;;0.70;;
62709;SDS011;48770;51.624;5.886;2023-01-19T16:24:20;0.90;;;0.70;;
62709;SDS011;48770;51.624;5.886;2023-01-19T16:26:45;0.73;;;0.55;;
62709;SDS011;48770;51.624;5.886;2023-01-19T16:29:11;1.25;;;0.80;;
62709;SDS011;48770;51.624;5.886;2023-01-19T16:31:37;1.10;;;0.90;;
62709;SDS011;48770;51.624;5.886;2023-01-19T16:34:03;1.35;;;0.80;;
62709;SDS011;48770;51.624;5.886;2023-01-19T16:36:32;0.88;;;0.70;;
62709;SDS011;48770;51.624;5.886;2023-01-19T16:38:59;1.08;;;0.90;;
62709;SDS011;48770;51.624;5.886;2023-01-19T16:41:26;1.17;;;0.82;;
62709;SDS011;48770;51.624;5.886;2023-01-19T16:43:53;1.30;;;0.98;;